createdAt,value
2022-12-11T00:00:12.466Z,31.08
2022-12-11T00:02:40.147Z,30.17
2022-12-11T00:05:08.824Z,24.75
2022-12-11T00:07:36.775Z,29.67
2022-12-11T00:10:05.939Z,31.05
2022-12-11T00:12:33.673Z,30.35
2022-12-11T00:15:02.677Z,30.80
2022-12-11T00:17:30.347Z,30.67
2022-12-11T00:19:58.048Z,27.92
2022-12-11T00:22:25.673Z,29.90
2022-12-11T00:24:53.380Z,28.92
2022-12-11T00:27:21.021Z,29.13
2022-12-11T00:29:48.699Z,32.17
2022-12-11T00:32:17.773Z,30.70
2022-12-11T00:34:45.383Z,27.55
2022-12-11T00:37:13.108Z,27.08
2022-12-11T00:39:40.795Z,30.30
2022-12-11T00:42:08.983Z,27.98
2022-12-11T00:44:37.133Z,31.83
2022-12-11T00:47:05.287Z,29.42
2022-12-11T00:49:34.266Z,31.95
2022-12-11T00:52:01.888Z,35.42
2022-12-11T00:54:29.463Z,30.15
2022-12-11T00:56:57.235Z,28.33
2022-12-11T00:59:24.819Z,29.92
2022-12-11T01:01:52.580Z,28.30
2022-12-11T01:04:20.140Z,30.70
2022-12-11T01:06:49.099Z,29.35
2022-12-11T01:09:34.148Z,36.92
2022-12-11T01:12:01.763Z,30.90
2022-12-11T01:14:29.354Z,30.02
2022-12-11T01:16:57.476Z,36.50
2022-12-11T01:19:25.126Z,35.20
2022-12-11T01:21:54.100Z,34.30
2022-12-11T01:24:21.712Z,34.78
2022-12-11T01:26:49.335Z,31.58
2022-12-11T01:29:16.974Z,33.60
2022-12-11T01:31:44.624Z,34.95
2022-12-11T01:34:12.321Z,37.80
2022-12-11T01:36:40.030Z,38.20
2022-12-11T01:39:09.083Z,37.10
2022-12-11T01:41:36.745Z,41.53
2022-12-11T01:44:07.731Z,40.97
2022-12-11T01:46:37.857Z,39.53
2022-12-11T01:49:08.791Z,38.65
2022-12-11T01:51:41.285Z,39.38
2022-12-11T01:54:13.830Z,35.17
2022-12-11T01:56:44.930Z,40.45
2022-12-11T01:59:14.851Z,38.90
2022-12-11T02:01:46.016Z,40.22
2022-12-11T02:04:16.230Z,40.53
2022-12-11T02:06:46.648Z,39.63
2022-12-11T02:09:18.164Z,43.15
2022-12-11T02:11:56.430Z,38.90
2022-12-11T02:14:31.262Z,39.65
2022-12-11T02:17:05.466Z,37.92
2022-12-11T02:19:49.405Z,36.80
2022-12-11T02:22:28.558Z,34.58
2022-12-11T02:25:10.752Z,39.80
2022-12-11T02:27:45.338Z,38.97
2022-12-11T02:30:17.016Z,34.58
2022-12-11T02:32:48.687Z,36.55
2022-12-11T02:35:21.389Z,37.42
2022-12-11T02:37:52.799Z,36.65
2022-12-11T02:40:26.030Z,37.05
2022-12-11T02:42:56.026Z,41.47
2022-12-11T02:45:27.372Z,37.10
2022-12-11T02:47:59.750Z,37.33
2022-12-11T02:50:28.619Z,45.53
2022-12-11T02:52:58.350Z,38.58
2022-12-11T02:55:28.790Z,43.17
2022-12-11T02:58:03.445Z,41.03
2022-12-11T03:00:32.953Z,38.58
2022-12-11T03:03:00.661Z,38.13
2022-12-11T03:05:28.558Z,37.75
2022-12-11T03:07:56.385Z,36.88
2022-12-11T03:10:24.629Z,43.03
2022-12-11T03:12:56.275Z,39.90
2022-12-11T03:15:34.286Z,35.20
2022-12-11T03:18:10.488Z,37.38
2022-12-11T03:20:42.033Z,31.45
2022-12-11T03:23:18.911Z,33.33
2022-12-11T03:25:55.449Z,29.75
2022-12-11T03:28:30.246Z,32.15
2022-12-11T03:30:59.269Z,33.40
2022-12-11T03:33:33.200Z,30.17
2022-12-11T03:36:04.925Z,35.35
2022-12-11T03:38:37.370Z,31.58
2022-12-11T03:41:08.105Z,35.47
2022-12-11T03:43:37.414Z,32.95
2022-12-11T03:46:06.136Z,34.78
2022-12-11T03:48:39.470Z,30.85
2022-12-11T03:51:08.336Z,31.08
2022-12-11T03:53:37.954Z,30.30
2022-12-11T03:56:09.571Z,31.65
2022-12-11T03:58:37.363Z,30.55
2022-12-11T04:01:05.355Z,31.67
2022-12-11T04:03:33.012Z,33.53
2022-12-11T04:06:02.028Z,33.22
2022-12-11T04:08:29.761Z,32.72
2022-12-11T04:11:11.409Z,28.75
2022-12-11T04:13:40.082Z,31.98
2022-12-11T04:16:08.133Z,29.20
2022-12-11T04:18:53.267Z,28.33
2022-12-11T04:21:40.013Z,28.20
2022-12-11T04:24:17.395Z,25.90
2022-12-11T04:26:45.929Z,32.33
2022-12-11T04:29:14.236Z,26.63
2022-12-11T04:31:42.155Z,28.77
2022-12-11T04:34:10.056Z,30.73
2022-12-11T04:36:39.334Z,27.52
2022-12-11T04:39:07.317Z,31.02
2022-12-11T04:41:37.075Z,29.42
2022-12-11T04:44:05.069Z,31.10
2022-12-11T04:46:33.181Z,29.27
2022-12-11T04:49:01.168Z,27.17
2022-12-11T04:51:29.704Z,29.55
2022-12-11T04:53:59.419Z,31.05
2022-12-11T04:56:27.065Z,29.45
2022-12-11T04:58:54.704Z,28.02
2022-12-11T05:01:23.980Z,26.77
2022-12-11T05:03:51.911Z,24.58
2022-12-11T05:06:19.590Z,26.15
2022-12-11T05:08:47.423Z,28.27
2022-12-11T05:11:17.444Z,26.33
2022-12-11T05:13:45.830Z,26.52
2022-12-11T05:16:16.012Z,24.65
2022-12-11T05:18:44.071Z,26.42
2022-12-11T05:21:13.930Z,25.90
2022-12-11T05:23:41.697Z,25.42
2022-12-11T05:26:12.366Z,25.80
2022-12-11T05:28:41.666Z,23.52
2022-12-11T05:31:14.049Z,23.83
2022-12-11T05:33:41.738Z,23.83
2022-12-11T05:36:10.180Z,23.58
2022-12-11T05:38:38.021Z,22.80
2022-12-11T05:41:07.712Z,23.45
2022-12-11T05:43:37.604Z,23.15
2022-12-11T05:46:11.538Z,21.33
2022-12-11T05:48:39.802Z,22.63
2022-12-11T05:51:09.363Z,22.67
2022-12-11T05:53:37.968Z,20.83
2022-12-11T05:56:08.167Z,20.58
2022-12-11T05:58:36.233Z,23.50
2022-12-11T06:01:08.114Z,22.00
2022-12-11T06:03:37.150Z,24.25
2022-12-11T06:06:06.570Z,22.55
2022-12-11T06:08:35.034Z,23.25
2022-12-11T06:11:05.071Z,24.83
2022-12-11T06:13:33.024Z,22.80
2022-12-11T06:16:04.731Z,21.40
2022-12-11T06:18:33.080Z,19.92
2022-12-11T06:21:02.095Z,23.60
2022-12-11T06:23:29.794Z,19.63
2022-12-11T06:25:57.451Z,21.92
2022-12-11T06:28:25.093Z,21.52
2022-12-11T06:30:52.787Z,19.08
2022-12-11T06:33:20.442Z,21.80
2022-12-11T06:35:48.075Z,21.52
2022-12-11T06:38:17.338Z,21.80
2022-12-11T06:40:45.091Z,23.13
2022-12-11T06:43:12.698Z,21.50
2022-12-11T06:45:40.429Z,22.52
2022-12-11T06:48:08.112Z,21.27
2022-12-11T06:50:35.847Z,22.67
2022-12-11T06:53:03.518Z,20.02
2022-12-11T06:55:35.462Z,25.20
2022-12-11T06:58:03.140Z,21.90
2022-12-11T07:00:31.123Z,21.80
2022-12-11T07:02:58.906Z,20.35
2022-12-11T07:05:26.565Z,22.20
2022-12-11T07:07:54.940Z,22.35
2022-12-11T07:10:23.100Z,22.70
2022-12-11T07:12:53.858Z,21.48
2022-12-11T07:15:21.672Z,20.45
2022-12-11T07:17:49.362Z,22.10
2022-12-11T07:20:17.607Z,25.25
2022-12-11T07:22:46.792Z,24.58
2022-12-11T07:25:14.727Z,22.25
2022-12-11T07:27:42.786Z,22.70
2022-12-11T07:30:13.351Z,23.67
2022-12-11T07:32:41.064Z,22.95
2022-12-11T07:35:09.992Z,22.98
2022-12-11T07:37:38.129Z,21.50
2022-12-11T07:40:06.794Z,24.83
2022-12-11T07:42:34.442Z,24.00
2022-12-11T07:45:02.835Z,20.40
2022-12-11T07:47:31.859Z,24.90
2022-12-11T07:49:59.544Z,23.83
2022-12-11T07:52:27.233Z,22.67
2022-12-11T07:54:54.856Z,21.98
2022-12-11T07:57:22.513Z,24.17
2022-12-11T07:59:50.293Z,24.80
2022-12-11T08:02:18.095Z,26.48
2022-12-11T08:04:47.155Z,23.30
2022-12-11T08:07:14.951Z,22.95
2022-12-11T08:09:42.577Z,22.40
2022-12-11T08:12:10.196Z,21.27
2022-12-11T08:14:38.574Z,25.52
2022-12-11T08:17:06.194Z,23.40
2022-12-11T08:19:34.021Z,23.20
2022-12-11T08:22:02.968Z,25.38
2022-12-11T08:24:30.598Z,23.40
2022-12-11T08:26:58.257Z,24.38
2022-12-11T08:29:26.004Z,23.48
2022-12-11T08:31:53.633Z,25.15
2022-12-11T08:34:21.249Z,26.30
2022-12-11T08:36:49.052Z,26.70
2022-12-11T08:39:18.032Z,25.30
2022-12-11T08:41:45.667Z,26.75
2022-12-11T08:44:16.718Z,26.67
2022-12-11T08:46:44.718Z,24.83
2022-12-11T08:49:12.456Z,23.80
2022-12-11T08:51:40.176Z,24.73
2022-12-11T08:54:07.853Z,25.35
2022-12-11T08:56:37.007Z,24.02
2022-12-11T08:59:06.174Z,23.65
2022-12-11T09:01:34.237Z,25.90
2022-12-11T09:04:01.959Z,23.15
2022-12-11T09:06:30.895Z,25.02
2022-12-11T09:09:00.983Z,24.38
2022-12-11T09:11:31.090Z,25.27
2022-12-11T09:14:06.882Z,24.45
2022-12-11T09:16:37.612Z,24.17
2022-12-11T09:19:05.499Z,23.45
2022-12-11T09:21:33.291Z,25.17
2022-12-11T09:24:02.223Z,23.48
2022-12-11T09:26:31.315Z,22.70
2022-12-11T09:29:00.482Z,21.92
2022-12-11T09:31:30.201Z,24.33
2022-12-11T09:34:02.887Z,23.73
2022-12-11T09:36:30.629Z,23.13
2022-12-11T09:39:01.499Z,23.85
2022-12-11T09:41:38.653Z,22.85
2022-12-11T09:44:33.785Z,23.67
2022-12-11T09:47:02.136Z,25.73
2022-12-11T09:49:36.435Z,24.65
2022-12-11T09:52:13.720Z,23.05
2022-12-11T09:54:46.206Z,23.48
2022-12-11T09:57:26.443Z,24.08
2022-12-11T10:00:08.322Z,25.10
2022-12-11T10:02:47.374Z,23.20
2022-12-11T10:05:22.228Z,22.17
2022-12-11T10:07:56.810Z,22.00
2022-12-11T10:10:33.305Z,23.08
2022-12-11T10:13:12.672Z,23.65
2022-12-11T10:15:50.362Z,23.77
2022-12-11T10:18:22.924Z,22.02
2022-12-11T10:20:52.668Z,23.42
2022-12-11T10:23:23.298Z,20.20
2022-12-11T10:25:55.954Z,20.60
2022-12-11T10:28:23.689Z,22.85
2022-12-11T10:31:00.889Z,22.30
2022-12-11T10:33:34.953Z,20.38
2022-12-11T10:36:02.871Z,21.13
2022-12-11T10:38:33.437Z,20.85
2022-12-11T10:41:07.167Z,21.52
2022-12-11T10:43:36.828Z,20.40
2022-12-11T10:46:07.276Z,21.52
2022-12-11T10:48:34.993Z,20.88
2022-12-11T10:51:05.075Z,22.08
2022-12-11T10:53:34.825Z,21.00
2022-12-11T10:56:03.285Z,22.50
2022-12-11T10:58:34.085Z,22.88
2022-12-11T11:01:09.451Z,21.88
2022-12-11T11:03:44.808Z,20.38
2022-12-11T11:06:18.332Z,20.52
2022-12-11T11:08:48.692Z,24.27
2022-12-11T11:11:27.960Z,20.48
2022-12-11T11:14:07.933Z,22.60
2022-12-11T11:16:39.659Z,22.40
2022-12-11T11:19:08.163Z,22.95
2022-12-11T11:21:37.027Z,21.30
2022-12-11T11:24:05.170Z,23.40
2022-12-11T11:27:11.189Z,24.00
2022-12-11T11:29:28.711Z,20.95
2022-12-11T11:31:57.991Z,22.95
2022-12-11T11:34:26.157Z,22.30
2022-12-11T11:36:59.642Z,21.55
2022-12-11T11:39:32.121Z,24.45
2022-12-11T11:42:05.511Z,24.42
2022-12-11T11:44:37.911Z,23.80
2022-12-11T11:47:15.754Z,24.77
2022-12-11T11:49:51.791Z,23.75
2022-12-11T11:52:26.278Z,24.42
2022-12-11T11:55:03.799Z,22.90
2022-12-11T11:57:38.200Z,22.80
2022-12-11T12:00:11.385Z,24.55
2022-12-11T12:02:43.655Z,22.38
2022-12-11T12:05:13.758Z,21.10
2022-12-11T12:07:52.688Z,19.55
2022-12-11T12:10:26.994Z,19.05
2022-12-11T12:13:01.985Z,19.63
2022-12-11T12:15:39.297Z,19.63
2022-12-11T12:18:16.470Z,21.65
2022-12-11T12:20:53.339Z,18.15
2022-12-11T12:23:36.948Z,20.98
2022-12-11T12:26:12.828Z,20.25
2022-12-11T12:28:48.965Z,17.35
2022-12-11T12:31:35.764Z,19.60
2022-12-11T12:34:15.977Z,19.95
2022-12-11T12:36:50.884Z,20.45
2022-12-11T12:39:27.491Z,20.25
2022-12-11T12:42:07.334Z,21.48
2022-12-11T12:44:43.375Z,22.80
2022-12-11T12:47:15.310Z,21.48
2022-12-11T12:49:47.306Z,21.10
2022-12-11T12:52:18.926Z,20.10
2022-12-11T12:55:03.632Z,18.60
2022-12-11T12:57:31.883Z,18.23
2022-12-11T12:59:59.628Z,21.02
2022-12-11T13:02:27.637Z,19.63
2022-12-11T13:05:07.391Z,21.38
2022-12-11T13:07:35.168Z,19.73
2022-12-11T13:10:07.176Z,20.08
2022-12-11T13:12:43.904Z,18.63
2022-12-11T13:15:36.945Z,19.75
2022-12-11T13:18:34.000Z,16.38
2022-12-11T13:21:03.844Z,16.92
2022-12-11T13:23:33.787Z,17.70
2022-12-11T13:26:03.313Z,19.02
2022-12-11T13:28:34.835Z,18.95
2022-12-11T13:31:28.655Z,18.98
2022-12-11T13:33:59.390Z,20.13
2022-12-11T13:36:31.302Z,21.60
2022-12-11T13:39:03.195Z,19.17
2022-12-11T13:41:33.110Z,19.60
2022-12-11T13:44:01.226Z,20.98
2022-12-11T13:46:32.338Z,17.48
2022-12-11T13:49:04.890Z,19.88
2022-12-11T13:51:36.998Z,21.25
2022-12-11T13:54:17.038Z,19.27
2022-12-11T13:56:58.345Z,18.95
2022-12-11T13:59:29.005Z,16.88
2022-12-11T14:02:04.908Z,18.15
2022-12-11T14:04:35.328Z,17.05
2022-12-11T14:07:07.885Z,17.90
2022-12-11T14:09:38.931Z,17.23
2022-12-11T14:12:07.206Z,19.15
2022-12-11T14:14:41.877Z,15.30
2022-12-11T14:17:14.635Z,15.30
2022-12-11T14:19:47.921Z,18.20
2022-12-11T14:22:21.049Z,18.67
2022-12-11T14:24:54.387Z,17.67
2022-12-11T14:27:22.868Z,18.27
2022-12-11T14:29:50.838Z,17.90
2022-12-11T14:32:24.743Z,17.23
2022-12-11T14:34:55.285Z,19.67
2022-12-11T14:37:25.099Z,20.83
2022-12-11T14:39:59.762Z,16.60
2022-12-11T14:42:32.261Z,17.25
2022-12-11T14:45:07.154Z,17.55
2022-12-11T14:47:40.257Z,17.63
2022-12-11T14:50:18.946Z,17.77
2022-12-11T14:52:50.284Z,18.27
2022-12-11T14:55:22.862Z,18.45
2022-12-11T14:57:55.173Z,18.90
2022-12-11T15:00:25.551Z,17.30
2022-12-11T15:03:01.645Z,17.75
2022-12-11T15:05:37.115Z,17.98
2022-12-11T15:08:24.599Z,21.85
2022-12-11T15:11:03.089Z,20.23
2022-12-11T15:13:31.338Z,20.02
2022-12-11T15:16:00.225Z,18.55
2022-12-11T15:18:32.078Z,16.98
2022-12-11T15:21:04.024Z,20.60
2022-12-11T15:23:31.741Z,20.38
2022-12-11T15:26:02.702Z,20.40
2022-12-11T15:28:34.141Z,19.67
2022-12-11T15:31:05.253Z,21.65
2022-12-11T15:33:34.751Z,20.52
2022-12-11T15:36:07.696Z,21.65
2022-12-11T15:38:39.471Z,20.77
2022-12-11T15:41:07.976Z,19.88
2022-12-11T15:43:38.609Z,22.38
2022-12-11T15:46:07.100Z,21.17
2022-12-11T15:48:35.078Z,21.25
2022-12-11T15:51:04.756Z,19.25
2022-12-11T15:53:32.549Z,19.70
2022-12-11T15:56:00.447Z,19.02
2022-12-11T15:58:28.883Z,21.00
2022-12-11T16:00:57.704Z,20.75
2022-12-11T16:03:26.403Z,20.67
2022-12-11T16:05:54.478Z,21.75
2022-12-11T16:08:24.747Z,22.35
2022-12-11T16:10:54.007Z,20.70
2022-12-11T16:13:22.435Z,23.27
2022-12-11T16:15:51.865Z,20.98
2022-12-11T16:18:22.094Z,22.80
2022-12-11T16:20:50.486Z,21.63
2022-12-11T16:23:19.111Z,21.75
2022-12-11T16:25:48.624Z,23.13
2022-12-11T16:28:18.580Z,20.80
2022-12-11T16:30:46.273Z,22.25
2022-12-11T16:33:14.686Z,23.85
2022-12-11T16:35:43.154Z,23.88
2022-12-11T16:38:11.311Z,22.45
2022-12-11T16:40:39.171Z,21.23
2022-12-11T16:43:08.283Z,25.05
2022-12-11T16:45:36.383Z,25.27
2022-12-11T16:48:05.313Z,25.25
2022-12-11T16:50:33.188Z,22.67
2022-12-11T16:53:00.895Z,24.38
2022-12-11T16:55:28.587Z,28.65
2022-12-11T16:57:56.245Z,25.45
2022-12-11T17:00:25.625Z,23.73
2022-12-11T17:02:53.408Z,23.42
2022-12-11T17:05:22.567Z,24.02
2022-12-11T17:07:50.564Z,25.20
2022-12-11T17:10:18.281Z,25.40
2022-12-11T17:12:45.974Z,24.02
2022-12-11T17:15:13.820Z,25.25
2022-12-11T17:17:43.184Z,27.48
2022-12-11T17:20:11.646Z,24.45
2022-12-11T17:22:39.953Z,23.92
2022-12-11T17:25:08.705Z,27.08
2022-12-11T17:27:36.382Z,25.40
2022-12-11T17:30:04.361Z,24.88
2022-12-11T17:32:32.013Z,27.55
2022-12-11T17:35:01.574Z,29.77
2022-12-11T17:37:29.263Z,25.85
2022-12-11T17:39:56.859Z,25.05
2022-12-11T17:42:26.843Z,27.33
2022-12-11T17:44:54.532Z,26.33
2022-12-11T17:47:22.244Z,24.83
2022-12-11T17:49:49.875Z,26.23
2022-12-11T17:52:19.167Z,25.25
2022-12-11T17:54:47.048Z,23.38
2022-12-11T17:57:14.647Z,22.50
2022-12-11T17:59:42.288Z,25.60
2022-12-11T18:02:10.489Z,26.77
2022-12-11T18:04:39.406Z,24.70
2022-12-11T18:07:07.278Z,27.15
2022-12-11T18:09:36.272Z,26.38
2022-12-11T18:12:03.986Z,28.33
2022-12-11T18:14:31.683Z,26.25
2022-12-11T18:16:59.645Z,30.33
2022-12-11T18:19:27.398Z,26.67
2022-12-11T18:21:55.685Z,31.40
2022-12-11T18:24:25.750Z,29.55
2022-12-11T18:26:54.761Z,28.35
2022-12-11T18:29:22.403Z,28.27
2022-12-11T18:31:50.101Z,28.90
2022-12-11T18:34:17.725Z,30.58
2022-12-11T18:36:47.098Z,27.80
2022-12-11T18:39:15.097Z,28.17
2022-12-11T18:41:42.780Z,30.08
2022-12-11T18:44:11.871Z,30.17
2022-12-11T18:46:39.871Z,29.90
2022-12-11T18:49:07.546Z,30.17
2022-12-11T18:51:35.848Z,29.73
2022-12-11T18:54:03.491Z,29.27
2022-12-11T18:56:31.167Z,30.15
2022-12-11T18:58:58.890Z,29.73
2022-12-11T19:01:30.025Z,31.75
2022-12-11T19:04:03.504Z,28.10
2022-12-11T19:06:35.412Z,30.33
2022-12-11T19:09:05.193Z,28.40
2022-12-11T19:11:34.206Z,26.75
2022-12-11T19:14:02.013Z,29.10
2022-12-11T19:16:33.687Z,28.10
2022-12-11T19:19:06.751Z,30.25
2022-12-11T19:21:35.328Z,26.13
2022-12-11T19:24:02.975Z,28.25
2022-12-11T19:26:31.398Z,30.05
2022-12-11T19:29:00.125Z,29.20
2022-12-11T19:31:29.575Z,26.05
2022-12-11T19:33:58.803Z,28.45
2022-12-11T19:36:28.841Z,29.73
2022-12-11T19:39:01.515Z,29.75
2022-12-11T19:41:30.768Z,28.63
2022-12-11T19:43:59.305Z,29.80
2022-12-11T19:46:27.770Z,26.70
2022-12-11T19:48:58.302Z,28.38
2022-12-11T19:51:28.233Z,25.85
2022-12-11T19:53:56.418Z,30.40
2022-12-11T19:56:24.390Z,30.65
2022-12-11T19:58:52.121Z,27.85
2022-12-11T20:01:24.682Z,30.95
2022-12-11T20:03:52.487Z,29.17
2022-12-11T20:06:22.042Z,30.08
2022-12-11T20:08:50.138Z,31.90
2022-12-11T20:11:19.233Z,29.65
2022-12-11T20:13:47.382Z,28.55
2022-12-11T20:16:16.251Z,31.02
2022-12-11T20:18:44.018Z,30.20
2022-12-11T20:21:14.530Z,34.35
2022-12-11T20:23:44.389Z,31.30
2022-12-11T20:26:14.402Z,34.20
2022-12-11T20:28:44.814Z,33.63
2022-12-11T20:31:19.704Z,33.85
2022-12-11T20:33:48.598Z,32.40
2022-12-11T20:36:17.839Z,31.40
2022-12-11T20:38:46.968Z,31.80
2022-12-11T20:41:16.603Z,29.77
2022-12-11T20:43:45.028Z,33.20
2022-12-11T20:46:14.782Z,32.58
2022-12-11T20:48:45.035Z,30.42
2022-12-11T20:51:18.547Z,29.98
2022-12-11T20:53:57.346Z,29.98
2022-12-11T20:56:26.893Z,34.67
2022-12-11T20:58:55.553Z,34.08
2022-12-11T21:01:25.626Z,32.25
2022-12-11T21:03:53.641Z,35.22
2022-12-11T21:06:23.615Z,31.50
2022-12-11T21:08:52.920Z,31.35
2022-12-11T21:11:20.811Z,34.35
2022-12-11T21:13:51.214Z,30.45
2022-12-11T21:16:20.171Z,32.10
2022-12-11T21:18:48.275Z,34.25
2022-12-11T21:21:16.969Z,32.10
2022-12-11T21:23:44.915Z,31.95
2022-12-11T21:26:14.643Z,30.00
2022-12-11T21:28:42.645Z,32.15
2022-12-11T21:31:13.943Z,32.05
2022-12-11T21:33:41.689Z,32.80
2022-12-11T21:36:12.382Z,31.23
2022-12-11T21:38:40.930Z,30.73
2022-12-11T21:41:10.463Z,29.88
2022-12-11T21:43:52.579Z,30.75
2022-12-11T21:46:29.208Z,31.20
2022-12-11T21:48:57.178Z,28.80
2022-12-11T21:51:31.075Z,29.77
2022-12-11T21:54:04.025Z,29.23
2022-12-11T21:56:32.164Z,29.20
2022-12-11T21:59:01.498Z,31.13
2022-12-11T22:01:33.487Z,33.65
2022-12-11T22:04:01.546Z,33.08
2022-12-11T22:06:29.218Z,32.20
2022-12-11T22:08:57.169Z,30.70
2022-12-11T22:11:27.412Z,30.58
2022-12-11T22:13:55.310Z,30.08
2022-12-11T22:16:24.957Z,29.92
2022-12-11T22:18:53.581Z,29.38
2022-12-11T22:21:21.498Z,29.25
2022-12-11T22:23:49.278Z,29.60
2022-12-11T22:26:19.111Z,29.88
2022-12-11T22:28:47.083Z,31.65
2022-12-11T22:31:17.222Z,30.33
2022-12-11T22:33:46.326Z,30.25
2022-12-11T22:36:13.970Z,26.33
2022-12-11T22:38:41.671Z,30.63
2022-12-11T22:41:17.487Z,30.65
2022-12-11T22:43:48.127Z,30.02
2022-12-11T22:46:16.064Z,31.60
2022-12-11T22:48:43.778Z,33.78
2022-12-11T22:51:13.302Z,30.25
2022-12-11T22:53:40.987Z,32.08
2022-12-11T22:56:10.719Z,29.27
2022-12-11T22:58:38.374Z,33.35
2022-12-11T23:01:10.597Z,29.10
2022-12-11T23:03:38.344Z,31.60
2022-12-11T23:06:08.253Z,30.05
2022-12-11T23:08:37.502Z,33.30
2022-12-11T23:11:11.910Z,28.65
2022-12-11T23:13:40.579Z,30.55
2022-12-11T23:16:09.270Z,31.08
2022-12-11T23:18:37.085Z,32.35
2022-12-11T23:21:05.483Z,31.42
2022-12-11T23:23:33.254Z,33.20
2022-12-11T23:26:03.197Z,29.52
2022-12-11T23:28:30.911Z,33.75
2022-12-11T23:30:58.879Z,32.05
2022-12-11T23:33:26.889Z,31.48
2022-12-11T23:35:55.149Z,31.25
2022-12-11T23:38:22.771Z,29.52
2022-12-11T23:40:50.610Z,32.22
2022-12-11T23:43:19.598Z,33.28
2022-12-11T23:45:47.624Z,34.47
2022-12-11T23:48:15.320Z,32.80
2022-12-11T23:50:44.048Z,34.85
2022-12-11T23:53:12.453Z,28.48
2022-12-11T23:55:41.052Z,27.33
2022-12-11T23:58:08.834Z,29.08
